Current | Forecast
Updated: 12:00 AM EET on February 19, 2018
Observed at Tulcea, Romania
Temperature 2°C
Windchill -1°C
Humidity 100%
Dew Point 2°C
Wind North at 11 km/h
Pressure 1022 hPa (Steady)
Conditions Light Drizzle
Visibility 5.0 kilometers
UV 0 out of 16
Clouds Mostly Cloudy (BKN) : 548 m
Yesterday's Maximum 4°C
Yesterday's Minimum -1°C approx.
Yesterday's Heating Degree Days 30 approx.
Sunrise7:00 AM EET
Sunset5:37 PM EET
Moon Rise8:52 AM EET
Moon Set9:24 PM EET
Moon PhaseMoon Phase
Waxing Crescent
Raw METARMETAR LRTC 182200Z AUTO 35006KT 5000 -DZ BKN018/// 02/02 Q1022


Monday
. High: 66° F.
Tuesday
. High: 69° F.
Wednesday
. High: 69° F.
Thursday
. High: 66° F.
Friday
. High: 68° F.
Saturday
. High: 69° F.
Sunday
. High: 69° F.
Monday
. High: 69° F.

Units: English | Metric

Find the Weather for any City, State or Zipcode, or Country:

U.S. State List | Severe Weather | Tropical Storms | Ski Conditions
United States | Canada | Central America | South America | Asia | Europe | Australia | Africa | Islands

Weather Underground

© Copyright 2018
The Weather Company, LLC